createdAt,value
2022-12-29T00:00:43.535Z,2.44
2022-12-29T00:03:13.117Z,2.48
2022-12-29T00:05:45.108Z,2.50
2022-12-29T00:08:13.790Z,2.52
2022-12-29T00:10:42.797Z,2.53
2022-12-29T00:13:30.585Z,2.54
2022-12-29T00:15:58.934Z,2.55
2022-12-29T00:18:28.699Z,2.57
2022-12-29T00:21:17.276Z,2.57
2022-12-29T00:24:06.558Z,2.57
2022-12-29T00:26:54.206Z,2.55
2022-12-29T00:29:41.750Z,2.56
2022-12-29T00:32:29.742Z,2.56
2022-12-29T00:35:11.705Z,2.56
2022-12-29T00:38:03.814Z,2.60
2022-12-29T00:40:53.397Z,2.59
2022-12-29T00:43:42.405Z,2.61
2022-12-29T00:46:17.645Z,2.61
2022-12-29T00:49:00.713Z,2.62
2022-12-29T00:51:30.608Z,2.62
2022-12-29T00:53:59.480Z,2.61
2022-12-29T00:56:30.313Z,2.61
2022-12-29T00:59:08.057Z,2.63
2022-12-29T01:01:37.732Z,2.62
2022-12-29T01:04:06.921Z,2.62
2022-12-29T01:06:39.706Z,2.63
2022-12-29T01:09:29.083Z,2.63
2022-12-29T01:11:58.065Z,2.63
2022-12-29T01:14:27.584Z,2.61
2022-12-29T01:16:56.631Z,2.64
2022-12-29T01:19:25.752Z,2.62
2022-12-29T01:21:54.193Z,2.63
2022-12-29T01:24:23.370Z,2.64
2022-12-29T01:26:52.215Z,2.64
2022-12-29T01:29:23.534Z,2.63
2022-12-29T01:31:52.741Z,2.63
2022-12-29T01:34:21.878Z,2.62
2022-12-29T01:36:50.632Z,2.63
2022-12-29T01:39:19.780Z,2.63
2022-12-29T01:41:49.984Z,2.63
2022-12-29T01:44:44.412Z,2.64
2022-12-29T01:47:13.607Z,2.63
2022-12-29T01:49:43.740Z,2.63
2022-12-29T01:52:13.299Z,2.64
2022-12-29T01:54:47.263Z,2.65
2022-12-29T01:57:21.604Z,2.65
2022-12-29T01:59:58.745Z,2.63
2022-12-29T02:02:28.530Z,2.63
2022-12-29T02:05:04.479Z,2.61
2022-12-29T02:07:31.677Z,2.58
2022-12-29T02:10:01.350Z,2.56
2022-12-29T02:12:31.773Z,2.54
2022-12-29T02:15:02.011Z,2.54
2022-12-29T02:18:08.480Z,2.52
2022-12-29T02:20:55.403Z,2.51
2022-12-29T02:23:51.162Z,2.48
2022-12-29T02:26:35.125Z,2.49
2022-12-29T02:29:34.427Z,2.45
2022-12-29T02:32:20.693Z,2.42
2022-12-29T02:35:03.402Z,2.41
2022-12-29T02:37:47.261Z,2.38
2022-12-29T02:40:27.116Z,2.36
2022-12-29T02:43:17.150Z,2.35
2022-12-29T02:45:58.015Z,2.34
2022-12-29T02:48:48.180Z,2.35
2022-12-29T02:51:34.948Z,2.35
2022-12-29T02:54:24.271Z,2.36
2022-12-29T02:56:54.293Z,2.32
2022-12-29T02:59:23.200Z,2.33
2022-12-29T03:02:18.472Z,2.33
2022-12-29T03:05:14.383Z,2.33
2022-12-29T03:08:10.146Z,2.32
2022-12-29T03:11:05.384Z,2.33
2022-12-29T03:14:00.835Z,2.33
2022-12-29T03:16:33.897Z,2.34
2022-12-29T03:19:13.933Z,2.31
2022-12-29T03:22:06.027Z,2.32
2022-12-29T03:24:41.971Z,2.32
2022-12-29T03:27:13.489Z,2.32
2022-12-29T03:29:53.657Z,2.31
2022-12-29T03:32:27.406Z,2.31
2022-12-29T03:34:56.772Z,2.31
2022-12-29T03:37:31.794Z,2.28
2022-12-29T03:40:01.105Z,2.27
2022-12-29T03:42:31.068Z,2.25
2022-12-29T03:44:59.966Z,2.22
2022-12-29T03:47:31.605Z,2.20
2022-12-29T03:50:00.748Z,2.19
2022-12-29T03:52:30.424Z,2.16
2022-12-29T03:54:59.797Z,2.13
2022-12-29T03:57:28.661Z,2.12
2022-12-29T03:59:59.135Z,2.12
2022-12-29T04:02:28.479Z,2.11
2022-12-29T04:04:59.089Z,2.10
2022-12-29T04:07:27.939Z,2.09
2022-12-29T04:09:58.179Z,2.08
2022-12-29T04:12:29.355Z,2.07
2022-12-29T04:15:00.417Z,2.07
2022-12-29T04:17:30.448Z,2.08
2022-12-29T04:20:01.221Z,2.07
2022-12-29T04:22:30.459Z,2.06
2022-12-29T04:25:00.645Z,2.05
2022-12-29T04:27:29.983Z,2.05
2022-12-29T04:30:18.050Z,2.02
2022-12-29T04:32:51.875Z,2.00
2022-12-29T04:35:22.003Z,1.98
2022-12-29T04:37:51.602Z,1.97
2022-12-29T04:40:20.852Z,1.97
2022-12-29T04:42:50.369Z,1.97
2022-12-29T04:45:21.038Z,1.99
2022-12-29T04:47:55.351Z,1.97
2022-12-29T04:50:44.152Z,1.96
2022-12-29T04:53:15.057Z,1.95
2022-12-29T04:55:51.333Z,1.94
2022-12-29T04:58:23.056Z,1.91
2022-12-29T05:00:52.959Z,1.91
2022-12-29T05:03:24.125Z,1.90
2022-12-29T05:05:57.332Z,1.93
2022-12-29T05:08:28.745Z,1.94
2022-12-29T05:11:00.489Z,1.95
2022-12-29T05:13:30.602Z,1.93
2022-12-29T05:16:01.746Z,1.93
2022-12-29T05:18:31.515Z,1.92
2022-12-29T05:21:01.919Z,1.90
2022-12-29T05:23:31.433Z,1.91
2022-12-29T05:26:05.658Z,1.91
2022-12-29T05:28:53.419Z,1.89
2022-12-29T05:31:23.491Z,1.88
2022-12-29T05:33:52.673Z,1.86
2022-12-29T05:36:23.701Z,1.85
2022-12-29T05:38:54.228Z,1.83
2022-12-29T05:41:23.890Z,1.82
2022-12-29T05:44:02.850Z,1.82
2022-12-29T05:46:49.996Z,1.83
2022-12-29T05:49:39.280Z,1.86
2022-12-29T05:52:27.063Z,1.87
2022-12-29T05:54:57.104Z,1.86
2022-12-29T05:57:27.838Z,1.88
2022-12-29T06:00:09.972Z,1.87
2022-12-29T06:02:46.093Z,1.87
2022-12-29T06:05:16.030Z,1.88
2022-12-29T06:07:46.283Z,1.89
2022-12-29T06:10:18.316Z,1.90
2022-12-29T06:12:53.251Z,1.92
2022-12-29T06:15:22.030Z,1.92
2022-12-29T06:17:54.204Z,1.94
2022-12-29T06:20:24.194Z,1.96
2022-12-29T06:22:54.732Z,1.96
2022-12-29T06:25:25.537Z,1.97
2022-12-29T06:27:57.149Z,1.98
2022-12-29T06:30:27.827Z,2.00
2022-12-29T06:32:57.025Z,2.01
2022-12-29T06:35:26.603Z,2.04
2022-12-29T06:37:56.116Z,2.04
2022-12-29T06:40:25.107Z,2.04
2022-12-29T06:43:07.472Z,2.04
2022-12-29T06:45:54.953Z,2.06
2022-12-29T06:48:25.255Z,2.08
2022-12-29T06:50:55.857Z,2.11
2022-12-29T06:53:25.058Z,2.12
2022-12-29T06:55:55.257Z,2.13
2022-12-29T06:58:25.301Z,2.16
2022-12-29T07:00:54.425Z,2.18
2022-12-29T07:03:23.663Z,2.21
2022-12-29T07:05:52.568Z,2.21
2022-12-29T07:08:22.175Z,2.21
2022-12-29T07:10:50.849Z,2.21
2022-12-29T07:13:21.417Z,2.22
2022-12-29T07:15:50.826Z,2.24
2022-12-29T07:18:20.046Z,2.26
2022-12-29T07:20:49.698Z,2.26
2022-12-29T07:23:19.371Z,2.23
2022-12-29T07:25:48.735Z,2.22
2022-12-29T07:28:17.886Z,2.26
2022-12-29T07:30:47.770Z,2.25
2022-12-29T07:33:17.256Z,2.26
2022-12-29T07:35:48.262Z,2.27
2022-12-29T07:38:17.719Z,2.28
2022-12-29T07:40:46.977Z,2.31
2022-12-29T07:43:16.117Z,2.33
2022-12-29T07:45:47.054Z,2.36
2022-12-29T07:48:19.284Z,2.40
2022-12-29T07:50:49.743Z,2.44
2022-12-29T07:53:19.545Z,2.47
2022-12-29T07:55:50.071Z,2.48
2022-12-29T07:58:19.482Z,2.52
2022-12-29T08:00:48.766Z,2.57
2022-12-29T08:03:20.897Z,2.64
2022-12-29T08:05:50.353Z,2.67
2022-12-29T08:08:21.220Z,2.72
2022-12-29T08:10:52.584Z,2.73
2022-12-29T08:13:22.482Z,2.76
2022-12-29T08:15:52.977Z,2.76
2022-12-29T08:18:23.675Z,2.78
2022-12-29T08:20:55.924Z,2.81
2022-12-29T08:23:26.253Z,2.84
2022-12-29T08:26:01.571Z,2.86
2022-12-29T08:28:31.321Z,2.93
2022-12-29T08:31:02.779Z,3.01
2022-12-29T08:33:33.153Z,3.07
2022-12-29T08:36:05.041Z,3.11
2022-12-29T08:38:35.581Z,3.15
2022-12-29T08:41:05.712Z,3.18
2022-12-29T08:43:35.579Z,3.20
2022-12-29T08:46:06.057Z,3.23
2022-12-29T08:48:37.085Z,3.28
2022-12-29T08:51:08.490Z,3.28
2022-12-29T08:53:38.203Z,3.28
2022-12-29T08:56:09.774Z,3.31
2022-12-29T08:58:41.663Z,3.34
2022-12-29T09:01:11.453Z,3.35
2022-12-29T09:06:12.010Z,3.38
2022-12-29T09:08:41.944Z,3.37
2022-12-29T09:11:16.518Z,3.40
2022-12-29T09:13:48.009Z,3.41
2022-12-29T09:16:17.214Z,3.43
2022-12-29T09:18:46.489Z,3.48
2022-12-29T09:21:16.004Z,3.50
2022-12-29T09:23:45.348Z,3.52
2022-12-29T09:26:14.605Z,3.55
2022-12-29T09:28:45.232Z,3.57
2022-12-29T09:31:14.352Z,3.60
2022-12-29T09:33:43.753Z,3.65
2022-12-29T09:36:13.255Z,3.67
2022-12-29T09:38:43.600Z,3.72
2022-12-29T09:41:31.397Z,3.75
2022-12-29T09:44:12.287Z,3.79
2022-12-29T09:46:46.700Z,3.85
2022-12-29T09:49:40.435Z,3.84
2022-12-29T09:52:16.833Z,3.86
2022-12-29T09:55:03.161Z,3.88
2022-12-29T09:57:43.309Z,3.89
2022-12-29T10:00:19.487Z,3.89
2022-12-29T10:02:59.989Z,3.91
2022-12-29T10:05:51.785Z,3.94
2022-12-29T10:08:48.328Z,3.96
2022-12-29T10:11:39.181Z,3.97
2022-12-29T10:14:26.797Z,3.98
2022-12-29T10:17:13.588Z,4.01
2022-12-29T10:20:23.206Z,4.03
2022-12-29T10:23:31.255Z,4.04
2022-12-29T10:26:01.150Z,4.06
2022-12-29T10:29:00.593Z,4.09
2022-12-29T10:31:35.486Z,4.11
2022-12-29T10:34:09.084Z,4.13
2022-12-29T10:36:49.648Z,4.14
2022-12-29T10:39:33.680Z,4.17
2022-12-29T10:42:14.306Z,4.19
2022-12-29T10:44:47.328Z,4.20
2022-12-29T10:47:19.660Z,4.23
2022-12-29T10:49:48.911Z,4.25
2022-12-29T10:52:18.745Z,4.27
2022-12-29T10:54:58.728Z,4.30
2022-12-29T10:57:35.274Z,4.30
2022-12-29T11:00:17.164Z,4.30
2022-12-29T11:03:17.421Z,4.33
2022-12-29T11:06:26.882Z,4.33
2022-12-29T11:09:02.222Z,4.32
2022-12-29T11:11:36.001Z,4.31
2022-12-29T11:14:17.221Z,4.28
2022-12-29T11:16:47.256Z,4.26
2022-12-29T11:19:26.147Z,4.27
2022-12-29T11:21:55.591Z,4.27
2022-12-29T11:24:28.098Z,4.27
2022-12-29T11:27:11.894Z,4.24
2022-12-29T11:29:42.797Z,4.21
2022-12-29T11:32:22.757Z,4.21
2022-12-29T11:34:51.113Z,4.21
2022-12-29T11:37:43.298Z,4.19
2022-12-29T11:40:19.637Z,4.18
2022-12-29T11:42:58.202Z,4.17
2022-12-29T11:45:34.992Z,4.19
2022-12-29T11:48:11.350Z,4.17
2022-12-29T11:50:42.525Z,4.17
2022-12-29T11:53:24.602Z,4.17
2022-12-29T11:56:03.576Z,4.14
2022-12-29T11:58:37.831Z,4.13
2022-12-29T12:01:27.446Z,4.12
2022-12-29T12:04:08.993Z,4.12
2022-12-29T12:07:01.316Z,4.10
2022-12-29T12:09:40.496Z,4.11
2022-12-29T12:12:13.268Z,4.09
2022-12-29T12:15:00.994Z,4.11
2022-12-29T12:18:16.910Z,4.13
2022-12-29T12:20:58.089Z,4.10
2022-12-29T12:23:55.855Z,4.11
2022-12-29T12:26:32.092Z,4.10
2022-12-29T12:29:06.705Z,4.12
2022-12-29T12:31:47.307Z,4.10
2022-12-29T12:34:21.482Z,4.09
2022-12-29T12:37:07.655Z,4.09
2022-12-29T12:40:04.648Z,4.11
2022-12-29T12:42:51.818Z,4.13
2022-12-29T12:45:41.618Z,4.14
2022-12-29T12:48:35.513Z,4.16
2022-12-29T12:51:28.823Z,4.16
2022-12-29T12:54:29.562Z,4.14
2022-12-29T12:57:22.591Z,4.14
2022-12-29T13:00:12.097Z,4.10
2022-12-29T13:03:13.847Z,4.10
2022-12-29T13:06:06.868Z,4.09
2022-12-29T13:08:58.832Z,4.08
2022-12-29T13:11:54.184Z,4.08
2022-12-29T13:14:29.276Z,4.07
2022-12-29T13:17:36.247Z,4.07
2022-12-29T13:20:22.734Z,4.07
2022-12-29T13:23:29.222Z,4.08
2022-12-29T13:26:24.336Z,4.07
2022-12-29T13:29:38.706Z,4.06
2022-12-29T13:32:43.544Z,4.06
2022-12-29T13:35:48.702Z,4.05
2022-12-29T13:38:25.682Z,4.04
2022-12-29T13:40:58.765Z,4.02
2022-12-29T13:43:28.720Z,4.00
2022-12-29T13:46:13.217Z,4.00
2022-12-29T13:49:02.304Z,4.00
2022-12-29T13:51:32.335Z,3.99
2022-12-29T13:54:13.491Z,3.98
2022-12-29T13:57:24.162Z,4.00
2022-12-29T14:00:07.281Z,3.98
2022-12-29T14:03:29.969Z,3.98
2022-12-29T14:06:15.241Z,3.96
2022-12-29T14:08:45.042Z,3.96
2022-12-29T14:11:15.994Z,3.95
2022-12-29T14:13:46.799Z,3.93
2022-12-29T14:16:33.867Z,3.93
2022-12-29T14:19:28.313Z,3.93
2022-12-29T14:22:02.350Z,3.92
2022-12-29T14:24:46.501Z,3.88
2022-12-29T14:27:21.630Z,3.88
2022-12-29T14:29:51.642Z,3.87
2022-12-29T14:32:31.323Z,3.86
2022-12-29T14:35:02.212Z,3.87
2022-12-29T14:37:35.902Z,3.89
2022-12-29T14:40:23.451Z,3.91
2022-12-29T14:42:54.447Z,3.91
2022-12-29T14:45:29.948Z,3.89
2022-12-29T14:47:58.750Z,3.88
2022-12-29T14:50:38.479Z,3.89
2022-12-29T14:53:07.537Z,3.88
2022-12-29T14:55:48.264Z,3.89
2022-12-29T14:58:44.166Z,3.89
2022-12-29T15:01:42.711Z,3.87
2022-12-29T15:04:24.654Z,3.84
2022-12-29T15:06:56.410Z,3.80
2022-12-29T15:09:37.927Z,3.80
2022-12-29T15:12:35.995Z,3.80
2022-12-29T15:15:27.318Z,3.79
2022-12-29T15:17:56.913Z,3.79
2022-12-29T15:20:29.257Z,3.76
2022-12-29T15:23:11.484Z,3.74
2022-12-29T15:26:03.966Z,3.72
2022-12-29T15:28:46.436Z,3.71
2022-12-29T15:31:30.130Z,3.70
2022-12-29T15:34:06.847Z,3.67
2022-12-29T15:36:38.970Z,3.60
2022-12-29T15:39:24.527Z,3.56
2022-12-29T15:42:46.849Z,3.57
2022-12-29T15:45:15.779Z,3.57
2022-12-29T15:47:47.388Z,3.55
2022-12-29T15:50:32.783Z,3.54
2022-12-29T15:53:01.975Z,3.55
2022-12-29T15:55:37.485Z,3.55
2022-12-29T15:58:09.157Z,3.56
2022-12-29T16:00:38.505Z,3.55
2022-12-29T16:03:09.839Z,3.54
2022-12-29T16:05:40.117Z,3.54
2022-12-29T16:08:33.494Z,3.53
2022-12-29T16:11:03.666Z,3.53
2022-12-29T16:13:40.491Z,3.49
2022-12-29T16:16:19.632Z,3.48
2022-12-29T16:18:56.755Z,3.46
2022-12-29T16:21:31.139Z,3.45
2022-12-29T16:24:04.058Z,3.42
2022-12-29T16:26:33.869Z,3.40
2022-12-29T16:29:03.283Z,3.38
2022-12-29T16:31:56.747Z,3.40
2022-12-29T16:34:34.403Z,3.41
2022-12-29T16:37:25.092Z,3.40
2022-12-29T16:39:55.052Z,3.40
2022-12-29T16:42:52.174Z,3.38
2022-12-29T16:45:29.091Z,3.36
2022-12-29T16:48:19.756Z,3.35
2022-12-29T16:50:48.840Z,3.34
2022-12-29T16:53:26.419Z,3.34
2022-12-29T16:55:55.957Z,3.35
2022-12-29T16:58:32.463Z,3.35
2022-12-29T17:01:05.150Z,3.35
2022-12-29T17:03:41.271Z,3.34
2022-12-29T17:06:18.959Z,3.34
2022-12-29T17:08:47.929Z,3.33
2022-12-29T17:11:59.282Z,3.32
2022-12-29T17:14:32.267Z,3.31
2022-12-29T17:17:01.090Z,3.29
2022-12-29T17:19:35.229Z,3.27
2022-12-29T17:22:03.864Z,3.26
2022-12-29T17:24:32.841Z,3.23
2022-12-29T17:27:01.745Z,3.21
2022-12-29T17:29:37.532Z,3.19
2022-12-29T17:32:09.608Z,3.17
2022-12-29T17:34:38.290Z,3.13
2022-12-29T17:37:27.242Z,3.09
2022-12-29T17:39:57.274Z,3.08
2022-12-29T17:42:26.317Z,3.05
2022-12-29T17:44:54.873Z,3.04
2022-12-29T17:47:24.917Z,3.03
2022-12-29T17:49:53.676Z,3.03
2022-12-29T17:52:22.616Z,3.01
2022-12-29T17:54:54.292Z,3.00
2022-12-29T17:57:23.426Z,2.97
2022-12-29T17:59:53.080Z,2.97
2022-12-29T18:02:29.317Z,2.96
2022-12-29T18:05:00.545Z,2.94
2022-12-29T18:07:35.391Z,2.93
2022-12-29T18:10:00.329Z,2.94
2022-12-29T18:12:37.885Z,2.93
2022-12-29T18:15:09.955Z,2.92
2022-12-29T18:17:39.824Z,2.92
2022-12-29T18:20:08.435Z,2.90
2022-12-29T18:22:37.076Z,2.89
2022-12-29T18:25:29.573Z,2.88
2022-12-29T18:27:58.518Z,2.87
2022-12-29T18:30:27.476Z,2.89
2022-12-29T18:32:56.526Z,2.90
2022-12-29T18:35:41.040Z,2.91
2022-12-29T18:38:10.103Z,2.90
2022-12-29T18:40:41.634Z,2.89
2022-12-29T18:43:16.305Z,2.88
2022-12-29T18:45:47.427Z,2.88
2022-12-29T18:48:17.307Z,2.88
2022-12-29T18:50:48.971Z,2.87
2022-12-29T18:53:21.448Z,2.90
2022-12-29T18:55:52.582Z,2.90
2022-12-29T18:58:22.265Z,2.88
2022-12-29T19:00:51.072Z,2.91
2022-12-29T19:03:21.415Z,2.92
2022-12-29T19:05:51.187Z,2.92
2022-12-29T19:08:19.977Z,2.93
2022-12-29T19:10:50.826Z,2.95
2022-12-29T19:13:24.323Z,2.99
2022-12-29T19:15:54.407Z,3.01
2022-12-29T19:20:59.146Z,3.04
2022-12-29T19:23:27.864Z,3.05
2022-12-29T19:25:57.710Z,3.04
2022-12-29T19:28:29.609Z,3.06
2022-12-29T19:31:00.746Z,3.07
2022-12-29T19:33:29.824Z,3.06
2022-12-29T19:36:01.583Z,3.06
2022-12-29T19:38:31.040Z,3.06
2022-12-29T19:40:59.815Z,3.07
2022-12-29T19:43:28.734Z,3.08
2022-12-29T19:45:58.572Z,3.09
2022-12-29T19:48:27.341Z,3.11
2022-12-29T19:50:58.716Z,3.14
2022-12-29T19:53:27.887Z,3.15
2022-12-29T19:55:56.722Z,3.17
2022-12-29T19:58:25.478Z,3.19
2022-12-29T20:00:54.247Z,3.19
2022-12-29T20:03:23.250Z,3.21
2022-12-29T20:05:52.894Z,3.21
2022-12-29T20:08:21.599Z,3.22
2022-12-29T20:11:18.393Z,3.22
2022-12-29T20:13:47.542Z,3.22
2022-12-29T20:16:18.815Z,3.21
2022-12-29T20:18:47.868Z,3.20
2022-12-29T20:21:22.185Z,3.22
2022-12-29T20:23:51.803Z,3.21
2022-12-29T20:26:27.123Z,3.23
2022-12-29T20:28:58.382Z,3.22
2022-12-29T20:31:35.777Z,3.22
2022-12-29T20:34:05.463Z,3.19
2022-12-29T20:36:37.235Z,3.20
2022-12-29T20:39:09.844Z,3.22
2022-12-29T20:41:38.443Z,3.24
2022-12-29T20:44:08.182Z,3.23
2022-12-29T20:46:43.690Z,3.22
2022-12-29T20:49:07.828Z,3.22
2022-12-29T20:52:04.594Z,3.21
2022-12-29T20:54:07.612Z,3.22
2022-12-29T20:56:36.510Z,3.21
2022-12-29T20:59:26.928Z,3.20
2022-12-29T21:01:36.565Z,3.21
2022-12-29T21:04:05.656Z,3.21
2022-12-29T21:06:34.818Z,3.22
2022-12-29T21:09:03.849Z,3.23
2022-12-29T21:11:35.889Z,3.25
2022-12-29T21:14:04.767Z,3.26
2022-12-29T21:16:34.688Z,3.26
2022-12-29T21:19:04.041Z,3.27
2022-12-29T21:21:33.282Z,3.28
2022-12-29T21:24:03.994Z,3.28
2022-12-29T21:26:34.304Z,3.28
2022-12-29T21:29:03.768Z,3.30
2022-12-29T21:31:37.131Z,3.30
2022-12-29T21:34:06.871Z,3.33
2022-12-29T21:36:35.325Z,3.34
2022-12-29T21:39:05.141Z,3.37
2022-12-29T21:41:35.357Z,3.38
2022-12-29T21:44:23.199Z,3.39
2022-12-29T21:46:53.178Z,3.39
2022-12-29T21:49:24.092Z,3.40
2022-12-29T21:51:57.205Z,3.41
2022-12-29T21:54:48.276Z,3.41
2022-12-29T21:57:36.820Z,3.41
2022-12-29T22:00:27.480Z,3.41
2022-12-29T22:03:22.748Z,3.42
2022-12-29T22:06:03.607Z,3.40
2022-12-29T22:08:54.424Z,3.39
2022-12-29T22:11:41.186Z,3.38
2022-12-29T22:14:09.699Z,3.38
2022-12-29T22:16:39.950Z,3.39
2022-12-29T22:19:10.450Z,3.37
2022-12-29T22:21:39.635Z,3.37
2022-12-29T22:24:11.211Z,3.37
2022-12-29T22:26:39.883Z,3.37
2022-12-29T22:29:08.783Z,3.38
2022-12-29T22:31:37.919Z,3.36
2022-12-29T22:34:06.659Z,3.35
2022-12-29T22:36:35.392Z,3.33
2022-12-29T22:39:04.533Z,3.33
2022-12-29T22:41:33.699Z,3.32
2022-12-29T22:44:02.354Z,3.32
2022-12-29T22:46:32.843Z,3.31
2022-12-29T22:49:01.817Z,3.31
2022-12-29T22:51:32.505Z,3.28
2022-12-29T22:54:01.363Z,3.27
2022-12-29T22:56:30.068Z,3.23
2022-12-29T22:59:01.208Z,3.19
2022-12-29T23:01:31.470Z,3.17
2022-12-29T23:04:35.081Z,3.16
2022-12-29T23:06:31.058Z,3.15
2022-12-29T23:09:00.603Z,3.15
2022-12-29T23:11:29.180Z,3.15
2022-12-29T23:13:58.885Z,3.16
2022-12-29T23:16:27.672Z,3.14
2022-12-29T23:18:56.395Z,3.12
2022-12-29T23:21:26.322Z,3.10
2022-12-29T23:24:01.143Z,3.07
2022-12-29T23:26:35.215Z,3.04
2022-12-29T23:29:06.925Z,2.97
2022-12-29T23:31:35.938Z,2.90
2022-12-29T23:34:05.905Z,2.86
2022-12-29T23:36:36.397Z,2.80
2022-12-29T23:39:05.249Z,2.71
2022-12-29T23:41:34.328Z,2.61
2022-12-29T23:44:04.051Z,2.55
2022-12-29T23:46:32.819Z,2.50
2022-12-29T23:49:01.502Z,2.47
2022-12-29T23:51:31.504Z,2.44
2022-12-29T23:54:00.395Z,2.37
2022-12-29T23:56:29.358Z,2.29
2022-12-29T23:58:58.271Z,2.21
